N800C KENV-KPVU
Flight info
| Callsign | N800C |
|---|---|
| Flight time | N/A |
| Altitude | 13000 |
| Route | DCT VFR |
| Aircraft | C310/L-SDFGR/S |
Departure
| Time | 2026-04-19 22:20 |
|---|---|
| Airport | Wendover Airport (KENV) |
Arrival
| Time | N/A |
|---|---|
| Airport | Provo Municipal Airport (KPVU) |
| Time | Latitude | Longitude | Altitude | Speed | Heading |
|---|---|---|---|---|---|
| 2026-04-19 22:20 | 40.62764 | -113.90806 | 8331 ft | 101 kts | 134° |
| 2026-04-19 22:20 | 40.62305 | -113.90109 | 8478 ft | 100 kts | 135° |
| 2026-04-19 22:21 | 40.61862 | -113.89413 | 8625 ft | 99 kts | 134° |
| 2026-04-19 22:21 | 40.61428 | -113.88715 | 8749 ft | 98 kts | 134° |
| 2026-04-19 22:21 | 40.61001 | -113.88017 | 8816 ft | 98 kts | 134° |
| 2026-04-19 22:21 | 40.60578 | -113.87321 | 8885 ft | 97 kts | 134° |
| 2026-04-19 22:22 | 40.60157 | -113.86622 | 8928 ft | 98 kts | 134° |
| 2026-04-19 22:22 | 40.59726 | -113.85911 | 8951 ft | 101 kts | 134° |
| 2026-04-19 22:22 | 40.59286 | -113.85185 | 8957 ft | 102 kts | 134° |
| 2026-04-19 22:22 | 40.58838 | -113.84452 | 8958 ft | 103 kts | 134° |
| 2026-04-19 22:23 | 40.58382 | -113.83713 | 8957 ft | 105 kts | 135° |
| 2026-04-19 22:23 | 40.57940 | -113.82993 | 8922 ft | 96 kts | 135° |
| 2026-04-19 22:23 | 40.57518 | -113.82333 | 8757 ft | 92 kts | 137° |
| 2026-04-19 22:23 | 40.57053 | -113.81728 | 8578 ft | 96 kts | 148° |
| 2026-04-19 22:24 | 40.56522 | -113.81227 | 8556 ft | 88 kts | 158° |
| 2026-04-19 22:24 | 40.56034 | -113.80743 | 8447 ft | 93 kts | 133° |
| 2026-04-19 22:24 | 40.55658 | -113.80014 | 8435 ft | 98 kts | 129° |
| 2026-04-19 22:24 | 40.55281 | -113.79321 | 8575 ft | 94 kts | 133° |
| 2026-04-19 22:25 | 40.54873 | -113.78632 | 8669 ft | 96 kts | 133° |
| 2026-04-19 22:25 | 40.54455 | -113.77949 | 8764 ft | 96 kts | 134° |
| 2026-04-19 22:25 | 40.54035 | -113.77264 | 8849 ft | 96 kts | 134° |
| 2026-04-19 22:25 | 40.53616 | -113.76582 | 8904 ft | 96 kts | 134° |
| 2026-04-19 22:26 | 40.53196 | -113.75903 | 8930 ft | 96 kts | 134° |
| 2026-04-19 22:26 | 40.52776 | -113.75227 | 8959 ft | 96 kts | 134° |
| 2026-04-19 22:26 | 40.52367 | -113.74528 | 8940 ft | 99 kts | 120° |
| 2026-04-19 22:26 | 40.52170 | -113.73644 | 8941 ft | 101 kts | 113° |
| 2026-04-19 22:27 | 40.51955 | -113.72774 | 8941 ft | 102 kts | 114° |
| 2026-04-19 22:27 | 40.51724 | -113.71886 | 8931 ft | 103 kts | 115° |
| 2026-04-19 22:27 | 40.51488 | -113.70992 | 8926 ft | 104 kts | 115° |
| 2026-04-19 22:27 | 40.51250 | -113.70097 | 8915 ft | 104 kts | 115° |
| 2026-04-19 22:28 | 40.51021 | -113.69197 | 8908 ft | 104 kts | 115° |
| 2026-04-19 22:28 | 40.50784 | -113.68263 | 8817 ft | 113 kts | 115° |
| 2026-04-19 22:28 | 40.50520 | -113.67245 | 8711 ft | 123 kts | 115° |
| 2026-04-19 22:28 | 40.50225 | -113.66143 | 8597 ft | 133 kts | 115° |
| 2026-04-19 22:29 | 40.49902 | -113.64964 | 8492 ft | 141 kts | 115° |
| 2026-04-19 22:29 | 40.49556 | -113.63730 | 8444 ft | 146 kts | 115° |
| 2026-04-19 22:29 | 40.49196 | -113.62465 | 8417 ft | 150 kts | 115° |
| 2026-04-19 22:29 | 40.48828 | -113.61180 | 8392 ft | 151 kts | 115° |
| 2026-04-19 22:30 | 40.48457 | -113.59884 | 8388 ft | 152 kts | 115° |
| 2026-04-19 22:30 | 40.48084 | -113.58584 | 8385 ft | 152 kts | 115° |
| 2026-04-19 22:30 | 40.47711 | -113.57285 | 8386 ft | 152 kts | 115° |
| 2026-04-19 22:30 | 40.47464 | -113.56423 | 8390 ft | 152 kts | 115° |
| 2026-04-19 22:31 | 40.47090 | -113.55118 | 8392 ft | 153 kts | 115° |
| 2026-04-19 22:31 | 40.46714 | -113.53808 | 8389 ft | 153 kts | 115° |
| 2026-04-19 22:31 | 40.46337 | -113.52497 | 8388 ft | 153 kts | 115° |
| 2026-04-19 22:31 | 40.45959 | -113.51185 | 8392 ft | 154 kts | 115° |
| 2026-04-19 22:32 | 40.45579 | -113.49874 | 8388 ft | 154 kts | 115° |
| 2026-04-19 22:32 | 40.45198 | -113.48560 | 8378 ft | 154 kts | 115° |
| 2026-04-19 22:32 | 40.44820 | -113.47235 | 8375 ft | 155 kts | 115° |
| 2026-04-19 22:32 | 40.44447 | -113.45911 | 8374 ft | 155 kts | 115° |
| 2026-04-19 22:33 | 40.44075 | -113.44590 | 8375 ft | 154 kts | 115° |
| 2026-04-19 22:33 | 40.43704 | -113.43270 | 8372 ft | 154 kts | 115° |
| 2026-04-19 22:33 | 40.43338 | -113.41976 | 8361 ft | 153 kts | 115° |
| 2026-04-19 22:33 | 40.42962 | -113.40658 | 8365 ft | 152 kts | 115° |
| 2026-04-19 22:34 | 40.42591 | -113.39365 | 8373 ft | 151 kts | 115° |
| 2026-04-19 22:34 | 40.42220 | -113.38069 | 8373 ft | 152 kts | 115° |
| 2026-04-19 22:34 | 40.41846 | -113.36769 | 8378 ft | 153 kts | 115° |
| 2026-04-19 22:34 | 40.41476 | -113.35484 | 8359 ft | 153 kts | 115° |
| 2026-04-19 22:35 | 40.41100 | -113.34181 | 8353 ft | 152 kts | 115° |
| 2026-04-19 22:35 | 40.40723 | -113.32882 | 8358 ft | 153 kts | 115° |
| 2026-04-19 22:35 | 40.40343 | -113.31579 | 8355 ft | 153 kts | 115° |
| 2026-04-19 22:35 | 40.39962 | -113.30282 | 8356 ft | 153 kts | 115° |
| 2026-04-19 22:36 | 40.39578 | -113.28979 | 8357 ft | 153 kts | 115° |
| 2026-04-19 22:36 | 40.39195 | -113.27680 | 8357 ft | 153 kts | 115° |
| 2026-04-19 22:36 | 40.38813 | -113.26381 | 8358 ft | 152 kts | 115° |
| 2026-04-19 22:36 | 40.38431 | -113.25084 | 8353 ft | 153 kts | 115° |
| 2026-04-19 22:37 | 40.38049 | -113.23787 | 8359 ft | 153 kts | 115° |
| 2026-04-19 22:37 | 40.37666 | -113.22486 | 8344 ft | 153 kts | 115° |
| 2026-04-19 22:37 | 40.37283 | -113.21185 | 8345 ft | 153 kts | 115° |
| 2026-04-19 22:37 | 40.36902 | -113.19888 | 8346 ft | 153 kts | 115° |
| 2026-04-19 22:38 | 40.36519 | -113.18586 | 8345 ft | 153 kts | 115° |
| 2026-04-19 22:38 | 40.36138 | -113.17282 | 8347 ft | 153 kts | 115° |
| 2026-04-19 22:38 | 40.35757 | -113.15975 | 8346 ft | 153 kts | 115° |
| 2026-04-19 22:38 | 40.35425 | -113.14828 | 8281 ft | 120 kts | 117° |
| 2026-04-19 22:39 | 40.35117 | -113.13858 | 8051 ft | 113 kts | 123° |
| 2026-04-19 22:39 | 40.35072 | -113.13747 | 8007 ft | 113 kts | 125° |
| 2026-04-19 22:39 | 40.34619 | -113.12915 | 7825 ft | 117 kts | 136° |
| 2026-04-19 22:39 | 40.34227 | -113.11993 | 7779 ft | 114 kts | 121° |
| 2026-04-19 22:40 | 40.33935 | -113.11054 | 7767 ft | 108 kts | 119° |
| 2026-04-19 22:40 | 40.33682 | -113.10102 | 7768 ft | 115 kts | 113° |
| 2026-04-19 22:40 | 40.33418 | -113.09063 | 7786 ft | 125 kts | 114° |
| 2026-04-19 22:40 | 40.33117 | -113.07961 | 7804 ft | 132 kts | 114° |